Terminal Aerodrome Forecast
Issued by NWS Pueblo, CO

Home | Current Version | Previous Version | Text Only | Print | Product List | Glossary On
Versions: 1 2 3 4 5 6 7 8 9 10 11 12 13 14 15 16 17 18 19 20 21 22 23 24 25 26 27 28 29
000
FTUS45 KPUB 030521
TAFCOS
TAF
KCOS 030521Z 0306/0406 06007KT P6SM SCT080 BKN120
     FM030900 VRB06KT P6SM SCT100 SCT150
     FM031800 16009KT P6SM VCTS SCT080CB BKN120
     FM040200 VRB06KT P6SM SCT100 BKN150=

USA.gov is the U.S. government's official web portal to all federal, state and local government web resources and services.